Time;durP1;ratioP1;P1;durP2;ratioP2;P2;SDS_P1;SDS_P2;PMS_P1;PMS_P2;Temp;Humidity;BMP_temperature;BMP_pressure;BME280_temperature;BME280_humidity;BME280_pressure;Samples;Min_cycle;Max_cycle;Signal;HPM_P1;HPM_P2
2021/07/25 00:01:52;;;;;;;6.97;2.20;;;27.10;48.10;;;;;;6349855;28;20066;-80
2021/07/25 00:04:53;;;;;;;3.90;2.30;;;27.10;48.10;;;;;;6331621;28;20023;-79
2021/07/25 00:07:54;;;;;;;4.50;2.25;;;27.10;48.20;;;;;;6348933;28;20457;-79
2021/07/25 00:10:56;;;;;;;3.55;2.22;;;27.10;48.30;;;;;;6315196;28;20129;-78
2021/07/25 00:14:02;;;;;;;4.03;2.25;;;27.00;48.40;;;;;;6331127;28;20426;-80
2021/07/25 00:17:03;;;;;;;3.65;2.20;;;27.00;48.40;;;;;;6331133;28;20423;-78
2021/07/25 00:20:04;;;;;;;9.38;2.45;;;27.00;48.60;;;;;;6349704;28;20453;-78
2021/07/25 00:23:06;;;;;;;6.45;2.47;;;27.00;48.60;;;;;;6349875;28;20036;-78
2021/07/25 00:26:12;;;;;;;3.72;2.42;;;27.00;48.50;;;;;;6331842;28;20047;-78
2021/07/25 00:29:13;;;;;;;3.85;2.40;;;27.00;48.50;;;;;;6348931;28;20051;-78
2021/07/25 00:32:14;;;;;;;4.63;2.30;;;27.00;48.50;;;;;;6348750;28;20049;-79
2021/07/25 00:35:17;;;;;;;4.45;2.28;;;27.00;48.50;;;;;;6348305;28;20468;-78
2021/07/25 00:38:18;;;;;;;5.10;2.47;;;27.00;49.10;;;;;;6331296;28;20044;-78
2021/07/25 00:41:19;;;;;;;4.60;2.47;;;27.00;48.60;;;;;;6331507;28;20043;-78
2021/07/25 00:44:20;;;;;;;6.15;2.60;;;27.00;48.60;;;;;;6331397;28;20036;-78
2021/07/25 00:47:22;;;;;;;10.52;2.40;;;26.90;48.60;;;;;;6349411;28;20458;-78
2021/07/25 00:50:23;;;;;;;7.45;2.33;;;27.00;48.60;;;;;;6314287;28;20055;-78
2021/07/25 00:53:24;;;;;;;5.53;2.28;;;26.90;48.60;;;;;;6348846;28;20521;-78
2021/07/25 00:56:25;;;;;;;3.83;2.33;;;27.00;48.70;;;;;;6331318;28;20042;-78
2021/07/25 00:59:26;;;;;;;8.57;2.30;;;27.00;48.60;;;;;;6316407;28;20473;-78
2021/07/25 01:02:32;;;;;;;5.55;2.53;;;27.10;48.40;;;;;;6313472;28;20035;-79
2021/07/25 01:05:39;;;;;;;3.00;2.28;;;27.10;48.40;;;;;;6313352;28;20460;-79
2021/07/25 01:09:02;;;;;;;12.07;2.47;;;27.10;48.40;;;;;;6348383;28;20036;-79
2021/07/25 01:12:06;;;;;;;3.33;2.20;;;27.10;48.60;;;;;;6330428;28;20032;-78
2021/07/25 01:15:09;;;;;;;5.45;2.30;;;27.10;48.50;;;;;;6348325;28;20027;-78
2021/07/25 01:18:09;;;;;;;13.77;5.15;;;27.10;48.40;;;;;;6348379;28;20051;-78
2021/07/25 01:21:12;;;;;;;4.93;2.38;;;27.10;48.30;;;;;;6348121;28;20032;-78
2021/07/25 01:24:13;;;;;;;4.25;2.47;;;27.10;48.20;;;;;;6348682;28;20032;-78
2021/07/25 01:27:31;;;;;;;5.60;2.38;;;27.10;48.00;;;;;;6348699;28;20055;-79
2021/07/25 01:30:35;;;;;;;5.15;2.78;;;27.10;48.00;;;;;;6330727;28;20503;-78
2021/07/25 01:33:38;;;;;;;5.22;2.22;;;27.10;47.90;;;;;;6349107;28;20491;-79
2021/07/25 01:36:40;;;;;;;3.45;2.05;;;27.10;47.90;;;;;;6368804;28;20043;-79
2021/07/25 01:39:41;;;;;;;3.38;2.17;;;27.00;47.80;;;;;;6367859;28;20138;-78
2021/07/25 01:42:42;;;;;;;5.22;2.10;;;27.00;47.90;;;;;;6357143;28;20039;-78
2021/07/25 01:45:43;;;;;;;3.67;2.08;;;27.00;48.00;;;;;;6372843;28;20045;-78
2021/07/25 01:48:45;;;;;;;4.80;2.20;;;26.90;48.10;;;;;;6335284;28;20036;-78
2021/07/25 01:51:45;;;;;;;4.40;2.20;;;26.90;48.20;;;;;;6335040;28;20185;-78
2021/07/25 01:54:46;;;;;;;3.15;2.10;;;26.90;48.30;;;;;;6331012;28;20398;-79
2021/07/25 01:57:47;;;;;;;3.75;2.28;;;26.90;48.30;;;;;;6349188;28;20451;-79
2021/07/25 02:00:49;;;;;;;2.60;2.10;;;26.80;48.40;;;;;;6330960;28;20039;-81
2021/07/25 02:03:50;;;;;;;5.45;2.70;;;26.80;48.60;;;;;;6329683;28;20031;-80
2021/07/25 02:06:51;;;;;;;2.40;1.95;;;26.70;48.60;;;;;;6330778;28;20042;-79
2021/07/25 02:09:52;;;;;;;3.33;2.13;;;26.70;48.70;;;;;;6331937;28;20040;-79
2021/07/25 02:12:53;;;;;;;3.65;2.17;;;26.70;48.90;;;;;;6331469;28;20071;-77
2021/07/25 02:15:54;;;;;;;4.00;2.50;;;26.60;49.00;;;;;;6349260;28;20048;-78
2021/07/25 02:18:55;;;;;;;6.53;2.30;;;26.70;49.20;;;;;;6330922;28;20097;-78
2021/07/25 02:21:56;;;;;;;4.93;2.13;;;26.70;49.20;;;;;;6329990;28;20395;-80
2021/07/25 02:24:57;;;;;;;3.63;2.38;;;26.70;49.10;;;;;;6347659;28;20036;-79
2021/07/25 02:27:58;;;;;;;5.18;2.30;;;26.80;49.10;;;;;;6333357;28;20062;-80
2021/07/25 02:30:58;;;;;;;6.57;2.58;;;26.80;48.90;;;;;;6311899;28;20032;-80
2021/07/25 02:33:59;;;;;;;3.17;2.10;;;26.80;48.90;;;;;;6334708;28;20093;-78
2021/07/25 02:37:00;;;;;;;6.32;2.50;;;26.80;48.90;;;;;;6334548;28;20454;-78
2021/07/25 02:40:02;;;;;;;3.05;2.10;;;26.90;48.90;;;;;;6318396;28;20052;-79
2021/07/25 02:43:03;;;;;;;4.25;2.40;;;26.90;48.90;;;;;;6352140;28;20054;-79
2021/07/25 02:46:03;;;;;;;7.72;2.33;;;26.90;48.90;;;;;;6334535;28;20411;-79
2021/07/25 02:49:04;;;;;;;7.35;2.22;;;26.80;48.90;;;;;;6351844;28;20040;-79
2021/07/25 02:52:06;;;;;;;5.57;2.58;;;26.70;48.90;;;;;;6351666;28;20040;-79
2021/07/25 02:55:08;;;;;;;4.32;2.38;;;26.60;49.10;;;;;;6316663;28;20055;-78
2021/07/25 02:58:09;;;;;;;5.00;2.63;;;26.60;49.30;;;;;;6352044;28;20024;-78
2021/07/25 03:01:14;;;;;;;3.17;2.30;;;26.70;48.90;;;;;;6333587;28;20051;-78
2021/07/25 03:04:15;;;;;;;5.15;2.67;;;26.70;49.20;;;;;;6314778;28;20036;-79
2021/07/25 03:07:16;;;;;;;4.50;2.30;;;26.80;49.30;;;;;;6332555;28;20074;-79
2021/07/25 03:10:18;;;;;;;4.90;2.45;;;26.80;49.10;;;;;;6333464;28;20064;-78
2021/07/25 03:13:19;;;;;;;4.82;2.35;;;26.90;49.10;;;;;;6351794;28;20051;-79
2021/07/25 03:16:19;;;;;;;3.25;2.17;;;26.80;49.10;;;;;;6333487;28;20067;-79
2021/07/25 03:19:20;;;;;;;4.03;2.50;;;26.70;49.10;;;;;;6316940;28;20039;-79
2021/07/25 03:22:22;;;;;;;5.90;2.25;;;26.60;49.20;;;;;;6350854;28;20342;-79
2021/07/25 03:25:24;;;;;;;4.78;2.17;;;26.60;49.90;;;;;;6349607;28;20044;-78
2021/07/25 03:28:26;;;;;;;8.15;2.17;;;26.60;49.40;;;;;;6333008;28;20505;-79
2021/07/25 03:31:27;;;;;;;6.75;2.50;;;26.50;49.40;;;;;;6333073;28;20032;-79
2021/07/25 03:34:32;;;;;;;3.70;2.25;;;26.60;49.50;;;;;;6333169;28;20032;-79
2021/07/25 03:37:33;;;;;;;5.55;2.20;;;26.70;50.00;;;;;;6314719;28;20028;-78
2021/07/25 03:40:34;;;;;;;2.67;2.00;;;26.70;49.40;;;;;;6349607;28;20055;-79
2021/07/25 03:43:35;;;;;;;5.63;2.45;;;26.70;49.40;;;;;;6350574;28;20093;-79
2021/07/25 03:46:36;;;;;;;4.10;2.25;;;26.70;49.40;;;;;;6316249;28;20053;-79
2021/07/25 03:49:41;;;;;;;4.55;2.55;;;26.70;49.50;;;;;;6350552;28;20036;-79
2021/07/25 03:52:43;;;;;;;4.68;2.10;;;26.60;49.50;;;;;;6332760;28;20047;-79
2021/07/25 03:55:45;;;;;;;4.45;2.42;;;26.50;49.60;;;;;;6350752;28;20122;-78
2021/07/25 03:58:46;;;;;;;8.23;2.30;;;26.50;49.70;;;;;;6332718;28;20115;-78
2021/07/25 04:01:47;;;;;;;4.32;2.35;;;25.90;50.00;;;;;;6331736;28;20124;-78
2021/07/25 04:04:47;;;;;;;7.72;2.53;;;26.40;50.00;;;;;;6326914;28;20035;-78
2021/07/25 04:07:48;;;;;;;5.80;2.85;;;26.30;50.10;;;;;;6330698;28;20039;-80
2021/07/25 04:10:50;;;;;;;4.32;2.50;;;26.30;50.30;;;;;;6325973;28;20106;-79
2021/07/25 04:13:51;;;;;;;7.45;2.40;;;26.20;50.30;;;;;;6330887;28;20353;-79
2021/07/25 04:16:52;;;;;;;6.80;2.42;;;26.20;50.50;;;;;;6331615;28;20035;-79
2021/07/25 04:19:52;;;;;;;8.00;2.40;;;26.20;50.60;;;;;;6331616;28;20484;-79
2021/07/25 04:22:53;;;;;;;4.90;2.55;;;26.20;50.60;;;;;;6331829;28;20110;-78
2021/07/25 04:25:54;;;;;;;8.02;2.67;;;26.10;50.60;;;;;;6331317;28;20384;-79
2021/07/25 04:28:55;;;;;;;4.50;2.25;;;26.20;50.70;;;;;;6349360;28;20479;-79
2021/07/25 04:31:56;;;;;;;8.98;2.60;;;26.20;50.80;;;;;;6348974;28;20040;-78
2021/07/25 04:34:57;;;;;;;3.75;2.72;;;26.10;50.80;;;;;;6325071;28;20385;-78
2021/07/25 04:37:58;;;;;;;11.30;3.30;;;26.10;50.90;;;;;;6314310;28;20034;-78
2021/07/25 04:41:08;;;;;;;4.05;2.30;;;26.10;51.30;;;;;;6330947;28;20088;-79
2021/07/25 04:44:15;;;;;;;4.57;2.70;;;26.10;51.40;;;;;;6329790;28;20119;-78
2021/07/25 04:47:19;;;;;;;6.18;2.33;;;26.00;51.40;;;;;;6331624;28;20035;-79
2021/07/25 04:50:25;;;;;;;4.05;2.33;;;26.00;51.40;;;;;;6331328;28;20047;-78
2021/07/25 04:53:27;;;;;;;4.82;2.55;;;26.00;51.60;;;;;;6330661;28;20054;-78
2021/07/25 04:56:29;;;;;;;5.35;2.72;;;26.00;51.70;;;;;;6332535;28;20129;-78
2021/07/25 04:59:44;;;;;;;7.10;2.83;;;26.10;51.60;;;;;;6314917;28;20525;-78
2021/07/25 05:02:45;;;;;;;6.32;2.95;;;26.10;51.40;;;;;;6331139;28;20031;-79
2021/07/25 05:05:47;;;;;;;5.30;2.80;;;26.10;51.30;;;;;;6314311;28;20532;-79
2021/07/25 05:08:48;;;;;;;4.65;2.55;;;26.10;51.30;;;;;;6330002;28;20024;-80
2021/07/25 05:12:17;;;;;;;5.47;3.30;;;26.10;51.20;;;;;;6323194;28;20059;-80
2021/07/25 05:15:29;;;;;;;3.75;2.55;;;26.10;51.40;;;;;;6312191;28;20042;-79
2021/07/25 05:18:40;;;;;;;4.35;2.78;;;26.10;51.30;;;;;;6329287;28;20036;-79
2021/07/25 05:21:45;;;;;;;6.55;3.03;;;26.10;51.50;;;;;;6307310;28;20035;-79
2021/07/25 05:24:47;;;;;;;3.90;2.50;;;26.20;51.50;;;;;;6328052;28;20097;-79
2021/07/25 05:27:50;;;;;;;5.05;2.53;;;26.20;51.60;;;;;;6345585;28;20036;-79
2021/07/25 05:30:53;;;;;;;4.40;2.67;;;26.20;51.70;;;;;;6327475;28;20027;-78
2021/07/25 05:33:53;;;;;;;11.05;3.28;;;26.20;52.00;;;;;;6327699;28;20055;-79
2021/07/25 05:36:54;;;;;;;9.57;2.88;;;26.20;52.10;;;;;;6344056;28;20073;-78
2021/07/25 05:39:55;;;;;;;5.72;3.00;;;26.20;52.20;;;;;;6327982;28;20027;-78
2021/07/25 05:42:56;;;;;;;5.35;2.53;;;26.10;52.30;;;;;;6308094;28;20444;-80
2021/07/25 05:45:57;;;;;;;4.05;2.58;;;26.10;52.20;;;;;;6344395;28;20509;-79
2021/07/25 05:48:58;;;;;;;3.78;2.70;;;26.20;52.10;;;;;;6328082;28;20055;-79
2021/07/25 05:51:59;;;;;;;7.95;2.95;;;26.20;52.00;;;;;;6310664;28;20040;-79
2021/07/25 05:55:01;;;;;;;4.10;2.80;;;26.20;51.90;;;;;;6310713;28;20028;-79
2021/07/25 05:58:02;;;;;;;7.38;2.97;;;26.20;52.00;;;;;;6327320;28;20043;-80
2021/07/25 06:01:03;;;;;;;11.88;2.88;;;26.20;52.00;;;;;;6327674;28;20035;-79
2021/07/25 06:04:04;;;;;;;8.38;2.88;;;26.20;52.00;;;;;;6342057;28;20039;-79
2021/07/25 06:07:05;;;;;;;6.97;2.85;;;26.30;52.00;;;;;;6350468;28;20054;-79
2021/07/25 06:10:06;;;;;;;3.92;2.20;;;26.40;51.90;;;;;;6366177;28;20035;-79
2021/07/25 06:13:08;;;;;;;8.43;2.30;;;26.60;51.60;;;;;;6338725;28;20043;-79
2021/07/25 06:16:10;;;;;;;4.80;2.67;;;26.80;51.00;;;;;;6349988;28;20038;-79
2021/07/25 06:19:11;;;;;;;4.00;2.58;;;26.90;50.70;;;;;;6314531;28;20035;-79
2021/07/25 06:22:12;;;;;;;3.17;2.05;;;27.00;50.40;;;;;;6303437;28;20034;-79
2021/07/25 06:25:20;;;;;;;4.05;2.70;;;27.10;50.20;;;;;;6347935;28;20448;-78
2021/07/25 06:28:21;;;;;;;7.57;2.75;;;27.10;50.00;;;;;;6347065;28;20100;-79
2021/07/25 06:31:22;;;;;;;3.45;2.25;;;27.20;49.80;;;;;;6313764;28;20051;-80
2021/07/25 06:34:22;;;;;;;4.90;2.25;;;27.10;49.80;;;;;;6330338;28;20439;-79
2021/07/25 06:37:23;;;;;;;5.78;2.30;;;27.00;49.90;;;;;;6336226;28;20042;-79
2021/07/25 06:40:26;;;;;;;4.10;2.30;;;26.90;50.00;;;;;;6295609;28;20116;-79
2021/07/25 06:43:27;;;;;;;4.55;2.38;;;27.00;50.20;;;;;;6330088;28;20415;-79
2021/07/25 06:46:33;;;;;;;3.97;2.55;;;27.00;50.20;;;;;;6348161;28;20391;-79
2021/07/25 06:49:33;;;;;;;6.90;2.35;;;26.90;50.10;;;;;;6347773;28;20356;-80
2021/07/25 06:52:34;;;;;;;3.88;2.42;;;26.90;50.20;;;;;;6313102;28;20036;-80
2021/07/25 06:55:35;;;;;;;6.50;2.47;;;26.90;50.10;;;;;;6312193;28;20058;-80
2021/07/25 06:58:36;;;;;;;3.35;2.25;;;26.90;50.10;;;;;;6311294;28;20344;-80
2021/07/25 07:01:37;;;;;;;4.70;2.55;;;27.00;50.10;;;;;;6328047;28;20484;-79
2021/07/25 07:04:38;;;;;;;5.80;2.22;;;27.10;50.00;;;;;;6329549;28;20032;-79
2021/07/25 07:07:39;;;;;;;4.32;2.72;;;27.20;49.80;;;;;;6340104;28;20031;-78
2021/07/25 07:10:42;;;;;;;4.68;2.40;;;27.20;49.80;;;;;;6345705;28;20031;-78
2021/07/25 07:13:43;;;;;;;4.80;2.65;;;27.30;49.70;;;;;;6320805;28;20058;-78
2021/07/25 07:16:44;;;;;;;6.32;2.90;;;27.50;49.60;;;;;;6307668;28;20051;-78
2021/07/25 07:19:45;;;;;;;3.60;2.35;;;27.50;49.30;;;;;;6311684;28;20054;-78
2021/07/25 07:22:54;;;;;;;6.57;2.65;;;27.50;49.20;;;;;;6336428;28;20036;-78
2021/07/25 07:25:56;;;;;;;4.28;2.75;;;27.50;49.30;;;;;;6291663;28;20541;-79
2021/07/25 07:28:57;;;;;;;9.05;2.65;;;27.30;49.30;;;;;;6292950;28;20107;-79
2021/07/25 07:31:59;;;;;;;8.07;2.65;;;27.20;49.50;;;;;;6290910;28;20036;-79
2021/07/25 07:35:01;;;;;;;4.97;2.65;;;27.10;49.60;;;;;;6295072;28;20033;-78
2021/07/25 07:38:03;;;;;;;4.32;2.53;;;27.10;49.80;;;;;;6306884;28;20127;-78
2021/07/25 07:41:04;;;;;;;7.15;2.60;;;27.00;49.80;;;;;;6290683;28;20024;-78
2021/07/25 07:44:05;;;;;;;4.97;2.92;;;26.90;49.90;;;;;;6290797;28;20555;-77
2021/07/25 07:47:06;;;;;;;3.33;2.40;;;26.90;49.90;;;;;;6308670;28;20041;-78
2021/07/25 07:50:08;;;;;;;5.88;3.05;;;27.00;49.90;;;;;;6292910;28;20118;-77
2021/07/25 07:53:09;;;;;;;4.40;2.65;;;27.10;49.80;;;;;;6293301;28;20056;-78
2021/07/25 07:56:09;;;;;;;7.07;2.53;;;27.10;49.70;;;;;;6293398;28;20043;-77
2021/07/25 07:59:11;;;;;;;5.15;2.80;;;27.10;49.60;;;;;;6289772;28;20032;-77
2021/07/25 08:02:11;;;;;;;10.38;3.13;;;27.20;49.30;;;;;;6297025;28;20036;-78
2021/07/25 08:05:12;;;;;;;6.13;3.10;;;27.30;49.00;;;;;;6309898;28;20043;-78
2021/07/25 08:08:13;;;;;;;7.50;2.75;;;27.40;48.70;;;;;;6291979;28;20044;-77
2021/07/25 08:11:15;;;;;;;8.70;2.88;;;27.60;48.30;;;;;;6293129;28;20162;-77
2021/07/25 08:14:19;;;;;;;3.20;2.45;;;27.70;48.20;;;;;;6294128;28;20044;-78
2021/07/25 08:17:20;;;;;;;4.57;2.58;;;27.80;47.90;;;;;;6293376;28;20622;-77
2021/07/25 08:20:21;;;;;;;4.03;2.40;;;28.00;47.90;;;;;;6292804;28;20064;-80
2021/07/25 08:23:22;;;;;;;5.13;2.85;;;28.20;47.60;;;;;;6292646;28;20048;-78
2021/07/25 08:26:23;;;;;;;4.97;2.70;;;28.40;47.20;;;;;;6315545;28;20143;-77
2021/07/25 08:29:24;;;;;;;10.30;2.88;;;28.60;46.80;;;;;;6343811;28;20032;-79
2021/07/25 08:32:25;;;;;;;5.65;2.67;;;28.80;46.40;;;;;;6307881;28;20031;-77
2021/07/25 08:35:26;;;;;;;6.22;2.75;;;28.90;46.20;;;;;;6325805;28;20353;-77
2021/07/25 08:38:27;;;;;;;6.05;2.60;;;29.00;46.10;;;;;;6325442;28;20114;-78
2021/07/25 08:42:06;;;;;;;5.55;3.03;;;29.10;45.90;;;;;;6324639;28;20032;-78
2021/07/25 08:45:10;;;;;;;4.57;3.03;;;29.20;45.70;;;;;;6169888;28;20462;-79
2021/07/25 08:48:17;;;;;;;5.03;2.85;;;29.40;45.40;;;;;;6210941;28;20042;-78
2021/07/25 08:51:21;;;;;;;5.43;2.72;;;29.50;45.10;;;;;;6205039;28;20044;-78
2021/07/25 08:54:26;;;;;;;5.53;2.72;;;29.60;44.80;;;;;;6204552;28;20056;-78
2021/07/25 08:57:30;;;;;;;6.63;3.40;;;29.70;44.60;;;;;;6183688;28;20040;-79
2021/07/25 09:00:31;;;;;;;5.38;2.67;;;29.70;44.40;;;;;;6204483;28;20030;-79
2021/07/25 09:03:33;;;;;;;4.20;2.70;;;29.80;44.10;;;;;;6192948;28;20494;-80
2021/07/25 09:06:50;;;;;;;4.18;2.85;;;29.80;44.00;;;;;;6176719;28;20034;-78
2021/07/25 09:09:57;;;;;;;4.05;2.50;;;29.80;43.90;;;;;;6178599;28;20037;-78
2021/07/25 09:12:58;;;;;;;4.57;2.20;;;29.70;44.00;;;;;;6200139;28;20074;-78
2021/07/25 09:15:59;;;;;;;4.88;2.10;;;29.60;43.90;;;;;;6197673;28;20053;-78
2021/07/25 09:19:01;;;;;;;14.63;6.47;;;29.60;43.40;;;;;;6192809;28;20117;-79
2021/07/25 09:22:02;;;;;;;3.58;2.20;;;29.60;43.30;;;;;;6287897;28;20027;-80
2021/07/25 09:25:04;;;;;;;4.00;2.47;;;29.60;43.20;;;;;;6324567;28;20043;-78
2021/07/25 09:28:11;;;;;;;3.42;2.15;;;29.70;42.20;;;;;;6326410;28;20106;-80
2021/07/25 09:31:14;;;;;;;7.10;2.03;;;29.70;41.70;;;;;;6323812;28;20449;-80
2021/07/25 09:34:37;;;;;;;3.78;1.50;;;29.70;41.20;;;;;;6325295;28;20036;-79
2021/07/25 09:37:39;;;;;;;7.78;2.00;;;29.70;41.00;;;;;;6327721;28;20035;-79
2021/07/25 09:40:42;;;;;;;3.38;2.35;;;29.80;40.70;;;;;;6352159;28;20058;-78
2021/07/25 09:43:57;;;;;;;5.28;2.60;;;29.80;41.00;;;;;;6331944;28;20055;-79
2021/07/25 09:46:58;;;;;;;3.47;2.25;;;29.90;41.40;;;;;;6329655;28;20032;-79
2021/07/25 09:50:01;;;;;;;6.30;1.85;;;30.00;41.30;;;;;;6330964;28;20406;-78
2021/07/25 09:53:02;;;;;;;3.35;2.10;;;30.00;40.50;;;;;;6330445;28;20592;-79
2021/07/25 09:56:14;;;;;;;4.78;2.78;;;30.10;40.40;;;;;;6314310;28;20036;-79
2021/07/25 09:59:25;;;;;;;4.82;2.72;;;30.10;40.70;;;;;;6346314;28;20111;-81
2021/07/25 10:02:29;;;;;;;4.00;2.58;;;30.20;40.90;;;;;;6312984;28;20036;-79
2021/07/25 10:05:32;;;;;;;3.30;2.25;;;30.30;41.10;;;;;;6332566;28;20463;-79
2021/07/25 10:08:32;;;;;;;3.67;2.13;;;30.40;41.10;;;;;;6331601;28;20473;-78
2021/07/25 10:11:35;;;;;;;3.35;2.40;;;30.40;41.00;;;;;;6337339;28;20040;-78
2021/07/25 10:14:38;;;;;;;4.57;2.70;;;30.50;40.90;;;;;;6333123;28;20045;-78
2021/07/25 10:17:42;;;;;;;3.20;2.17;;;30.50;40.20;;;;;;6331458;28;20479;-78
2021/07/25 10:20:44;;;;;;;3.95;2.35;;;30.40;40.10;;;;;;6330572;28;20085;-78
2021/07/25 10:23:52;;;;;;;3.10;2.35;;;30.40;39.60;;;;;;6312951;28;20044;-78
2021/07/25 10:26:54;;;;;;;2.85;1.55;;;30.40;39.40;;;;;;6352505;28;20053;-79
2021/07/25 10:30:01;;;;;;;3.03;1.70;;;30.50;39.40;;;;;;6333642;28;20051;-78
2021/07/25 10:33:03;;;;;;;3.03;1.70;;;30.50;39.40;;;;;;6339914;28;20369;-78
2021/07/25 10:36:04;;;;;;;4.70;2.03;;;30.50;39.00;;;;;;6326641;28;20032;-77
2021/07/25 10:39:06;;;;;;;4.10;1.83;;;30.50;38.60;;;;;;6343860;28;20035;-77
2021/07/25 10:42:08;;;;;;;3.17;1.92;;;30.50;38.50;;;;;;6338223;28;20042;-77
2021/07/25 10:45:10;;;;;;;3.00;1.90;;;30.60;38.40;;;;;;6326591;28;20031;-78
2021/07/25 10:48:15;;;;;;;3.53;1.77;;;30.60;38.30;;;;;;6329141;28;20077;-78
2021/07/25 10:51:19;;;;;;;3.97;2.03;;;30.70;38.10;;;;;;6323303;28;20051;-77
2021/07/25 10:54:23;;;;;;;2.83;1.52;;;30.80;38.10;;;;;;6328138;28;20438;-79
2021/07/25 10:57:24;;;;;;;5.60;2.03;;;30.80;37.70;;;;;;6331226;28;20093;-79
2021/07/25 11:00:49;;;;;;;4.80;2.22;;;30.80;37.40;;;;;;6310733;28;20071;-79
2021/07/25 11:03:50;;;;;;;2.30;1.75;;;30.80;37.20;;;;;;6329736;28;20045;-79
2021/07/25 11:07:23;;;;;;;7.20;1.83;;;31.10;36.90;;;;;;6323802;28;20043;-77
2021/07/25 11:10:32;;;;;;;7.07;2.15;;;31.90;35.60;;;;;;6324940;28;20031;-78
2021/07/25 11:13:42;;;;;;;2.42;1.75;;;33.00;34.40;;;;;;6311482;28;20046;-77
2021/07/25 11:16:46;;;;;;;2.83;1.85;;;33.90;32.90;;;;;;6327585;28;20040;-77
2021/07/25 11:19:47;;;;;;;3.63;1.98;;;34.70;31.70;;;;;;6327421;28;20036;-78
2021/07/25 11:22:48;;;;;;;4.88;1.83;;;35.20;30.70;;;;;;6348978;28;20469;-78
2021/07/25 11:25:51;;;;;;;3.25;2.22;;;35.50;30.10;;;;;;6331296;28;20052;-78
2021/07/25 11:28:52;;;;;;;4.40;1.90;;;35.80;29.80;;;;;;6331198;28;20161;-77
2021/07/25 11:31:53;;;;;;;3.42;1.92;;;36.00;29.40;;;;;;6348388;28;20035;-78
2021/07/25 11:35:05;;;;;;;3.15;1.92;;;36.20;29.30;;;;;;6347958;28;20032;-78
2021/07/25 11:38:11;;;;;;;4.05;1.92;;;36.40;29.10;;;;;;6346646;28;20039;-80
2021/07/25 11:41:12;;;;;;;3.47;2.10;;;36.60;28.80;;;;;;6328756;28;20395;-80
2021/07/25 11:44:13;;;;;;;3.50;1.70;;;36.70;28.70;;;;;;6329938;28;20027;-79
2021/07/25 11:47:14;;;;;;;3.22;1.80;;;36.90;28.60;;;;;;6331095;28;20074;-79
2021/07/25 11:50:43;;;;;;;3.97;1.90;;;37.00;28.00;;;;;;6331264;28;20035;-81
2021/07/25 11:53:46;;;;;;;1.80;1.58;;;36.70;28.20;;;;;;6349339;28;20040;-81
2021/07/25 11:57:06;;;;;;;3.03;1.80;;;36.90;28.10;;;;;;6325224;28;20023;-80
2021/07/25 12:00:07;;;;;;;3.47;2.15;;;37.10;27.90;;;;;;6345767;28;20027;-80
2021/07/25 12:03:08;;;;;;;3.92;1.67;;;37.30;27.60;;;;;;6326597;28;20073;-80
2021/07/25 12:06:12;;;;;;;4.57;2.00;;;37.40;27.20;;;;;;6347202;27;20031;-80
2021/07/25 12:09:14;;;;;;;6.25;1.98;;;36.80;27.40;;;;;;6312543;27;20522;-80
2021/07/25 12:12:36;;;;;;;4.10;1.75;;;36.10;27.80;;;;;;6325548;27;20151;-79
2021/07/25 12:15:38;;;;;;;4.45;2.20;;;35.60;28.30;;;;;;6336570;27;20060;-78
2021/07/25 12:18:39;;;;;;;2.70;1.70;;;35.90;28.00;;;;;;6316376;27;20027;-79
2021/07/25 12:21:40;;;;;;;2.75;2.05;;;36.40;27.70;;;;;;6337306;27;20032;-79
2021/07/25 12:24:44;;;;;;;2.40;1.58;;;36.80;27.10;;;;;;6337889;27;20047;-80
2021/07/25 12:27:44;;;;;;;2.65;1.88;;;36.60;27.10;;;;;;6315235;27;20035;-81
2021/07/25 12:30:53;;;;;;;3.40;1.67;;;36.00;27.60;;;;;;6349855;27;20459;-80
2021/07/25 12:34:03;;;;;;;2.45;1.60;;;35.30;27.90;;;;;;6351647;27;20043;-79
2021/07/25 12:37:26;;;;;;;4.57;1.85;;;34.70;28.30;;;;;;6336272;27;20371;-79
2021/07/25 12:40:32;;;;;;;3.42;1.90;;;34.20;28.90;;;;;;6352451;27;20107;-79
2021/07/25 12:43:34;;;;;;;2.35;1.73;;;33.80;29.20;;;;;;6337781;27;20089;-79
2021/07/25 12:46:35;;;;;;;5.00;1.83;;;33.50;29.60;;;;;;6308386;27;20548;-79
2021/07/25 12:50:11;;;;;;;4.78;2.10;;;33.30;30.00;;;;;;6356603;27;20039;-78
2021/07/25 12:53:26;;;;;;;3.13;1.80;;;33.10;30.20;;;;;;6204874;28;20037;-79
2021/07/25 12:56:31;;;;;;;2.60;1.70;;;33.50;30.10;;;;;;6191666;28;20037;-79
2021/07/25 12:59:32;;;;;;;4.28;1.88;;;34.30;28.60;;;;;;6203613;28;20451;-80
2021/07/25 13:05:52;;;;;;;2.58;1.67;;;35.20;28.10;;;;;;6221233;28;20041;-80
2021/07/25 13:09:01;;;;;;;7.05;1.85;;;35.60;27.50;;;;;;6208728;28;20371;-79
2021/07/25 13:12:04;;;;;;;2.38;1.75;;;35.30;27.80;;;;;;6185587;28;20459;-79
2021/07/25 13:15:06;;;;;;;3.65;1.95;;;35.40;28.00;;;;;;6228847;28;20465;-80
2021/07/25 13:18:08;;;;;;;2.20;1.77;;;36.20;27.30;;;;;;6224751;28;20026;-80
2021/07/25 13:21:09;;;;;;;3.72;1.48;;;36.60;26.60;;;;;;6228457;28;20053;-80
2021/07/25 13:24:14;;;;;;;3.13;1.90;;;36.60;26.50;;;;;;6227555;28;20046;-79
2021/07/25 13:27:15;;;;;;;6.47;1.70;;;36.20;26.90;;;;;;6298558;28;20036;-77
2021/07/25 13:30:16;;;;;;;1.98;1.70;;;35.80;27.10;;;;;;6316896;28;20043;-78
2021/07/25 13:33:17;;;;;;;6.28;1.70;;;35.70;27.10;;;;;;6323167;28;20032;-78
2021/07/25 13:36:19;;;;;;;5.45;1.98;;;36.00;26.90;;;;;;6355221;28;20031;-78
2021/07/25 13:39:20;;;;;;;4.07;2.13;;;35.90;27.10;;;;;;6353920;28;20038;-78
2021/07/25 13:42:21;;;;;;;7.80;2.00;;;35.50;27.60;;;;;;6317856;28;20123;-79
2021/07/25 13:45:22;;;;;;;2.03;1.67;;;35.70;27.40;;;;;;6323262;28;20051;-79
2021/07/25 13:48:24;;;;;;;7.35;1.98;;;36.20;26.90;;;;;;6312947;28;20768;-80
2021/07/25 13:51:25;;;;;;;4.90;1.83;;;36.30;26.70;;;;;;6310293;28;20032;-79
2021/07/25 13:54:26;;;;;;;2.67;1.80;;;36.10;26.90;;;;;;6307231;28;20040;-80
2021/07/25 13:57:27;;;;;;;4.53;2.00;;;35.80;27.30;;;;;;6310888;28;20035;-79
2021/07/25 14:00:29;;;;;;;2.90;1.73;;;35.80;27.50;;;;;;6309255;28;20097;-79
2021/07/25 14:03:29;;;;;;;2.63;1.80;;;36.20;27.20;;;;;;6321896;28;20039;-81
2021/07/25 14:06:30;;;;;;;2.97;2.00;;;38.00;26.00;;;;;;6321091;28;20054;-80
2021/07/25 14:09:31;;;;;;;2.92;2.00;;;39.60;24.60;;;;;;6343233;28;20460;-81
2021/07/25 14:12:32;;;;;;;5.85;1.80;;;40.80;23.40;;;;;;6343746;28;20039;-81
2021/07/25 14:15:36;;;;;;;3.47;2.00;;;41.80;22.60;;;;;;6310506;28;20126;-80
2021/07/25 14:18:37;;;;;;;2.58;1.63;;;42.80;21.70;;;;;;6333003;28;20032;-81
2021/07/25 14:21:38;;;;;;;3.05;2.17;;;43.40;21.30;;;;;;6310471;28;20036;-81
2021/07/25 14:24:39;;;;;;;5.15;1.85;;;44.10;20.50;;;;;;6292754;28;20028;-81
2021/07/25 14:27:40;;;;;;;3.55;2.25;;;44.40;20.30;;;;;;6321515;28;20040;-81
2021/07/25 14:30:42;;;;;;;2.90;1.75;;;44.20;20.20;;;;;;6307309;28;20380;-81
2021/07/25 14:33:43;;;;;;;3.20;2.17;;;43.50;20.70;;;;;;6320698;28;20048;-80
2021/07/25 14:36:44;;;;;;;2.72;1.90;;;43.20;20.90;;;;;;6325242;28;20346;-81
2021/07/25 14:39:45;;;;;;;2.55;1.88;;;43.60;20.80;;;;;;6321985;28;20032;-81
2021/07/25 14:42:46;;;;;;;2.40;2.00;;;44.20;20.40;;;;;;6325764;28;20036;-81
2021/07/25 14:45:46;;;;;;;2.88;1.92;;;44.50;19.90;;;;;;6336253;28;20067;-81
2021/07/25 14:48:48;;;;;;;3.78;1.80;;;44.80;19.80;;;;;;6342278;28;20051;-81
2021/07/25 14:51:49;;;;;;;3.42;1.67;;;45.20;19.50;;;;;;6345491;28;20493;-81
2021/07/25 14:54:50;;;;;;;2.70;1.77;;;45.50;19.00;;;;;;6305497;28;20032;-80
2021/07/25 14:57:51;;;;;;;2.88;1.40;;;45.60;18.90;;;;;;6335216;28;20027;-81
2021/07/25 15:00:52;;;;;;;4.50;1.60;;;45.80;18.80;;;;;;6349253;28;20367;-80
2021/07/25 15:03:53;;;;;;;2.65;1.77;;;45.60;18.70;;;;;;6331435;28;20032;-80
2021/07/25 15:06:54;;;;;;;3.17;1.98;;;44.50;19.50;;;;;;6314792;28;20034;-80
2021/07/25 15:09:55;;;;;;;5.13;1.80;;;43.30;20.40;;;;;;6314708;28;20392;-79
2021/07/25 15:12:56;;;;;;;3.22;1.52;;;41.90;21.40;;;;;;6296489;28;20050;-79
2021/07/25 15:15:57;;;;;;;2.70;1.88;;;40.80;22.30;;;;;;6324589;28;20035;-79
2021/07/25 15:18:57;;;;;;;2.55;1.77;;;39.70;23.20;;;;;;6331025;28;20028;-80
2021/07/25 15:21:59;;;;;;;3.17;1.75;;;38.90;24.00;;;;;;6348750;28;20036;-80
2021/07/25 15:25:02;;;;;;;3.85;1.90;;;38.10;24.70;;;;;;6336956;28;20440;-80
2021/07/25 15:28:03;;;;;;;2.20;1.75;;;37.60;25.20;;;;;;6330443;28;20480;-80
2021/07/25 15:31:05;;;;;;;2.70;1.40;;;38.00;25.00;;;;;;6329978;28;20379;-80
2021/07/25 15:34:06;;;;;;;3.28;1.55;;;38.80;24.30;;;;;;6328585;28;20039;-80
2021/07/25 15:37:07;;;;;;;2.75;1.80;;;39.70;23.50;;;;;;6330248;28;20046;-80
2021/07/25 15:40:09;;;;;;;2.88;1.90;;;40.60;22.90;;;;;;6347481;28;20032;-81
2021/07/25 15:43:10;;;;;;;3.00;1.75;;;41.40;22.30;;;;;;6348133;28;20036;-80
2021/07/25 15:46:13;;;;;;;4.30;1.50;;;41.60;22.00;;;;;;6348244;28;20461;-80
2021/07/25 15:49:14;;;;;;;3.42;1.73;;;41.90;21.70;;;;;;6329898;28;20040;-80
2021/07/25 15:52:15;;;;;;;2.13;1.90;;;42.10;21.40;;;;;;6321809;28;20123;-79
2021/07/25 15:55:18;;;;;;;2.85;1.80;;;42.10;21.40;;;;;;6347148;28;20040;-80